sensor_id;sensor_type;location;lat;lon;timestamp;P1;durP1;ratioP1;P2;durP2;ratioP2
45618;SDS011;31343;47.520;19.144;2024-01-30T00:01:53;7.78;;;4.70;;
45618;SDS011;31343;47.520;19.144;2024-01-30T00:04:19;8.00;;;4.18;;
45618;SDS011;31343;47.520;19.144;2024-01-30T00:06:45;6.93;;;4.25;;
45618;SDS011;31343;47.520;19.144;2024-01-30T00:09:11;6.57;;;4.60;;
45618;SDS011;31343;47.520;19.144;2024-01-30T00:11:37;9.27;;;5.63;;
45618;SDS011;31343;47.520;19.144;2024-01-30T00:14:06;7.47;;;4.30;;
45618;SDS011;31343;47.520;19.144;2024-01-30T00:16:31;9.48;;;5.53;;
45618;SDS011;31343;47.520;19.144;2024-01-30T00:18:57;10.35;;;6.18;;
45618;SDS011;31343;47.520;19.144;2024-01-30T00:21:23;8.95;;;4.65;;
45618;SDS011;31343;47.520;19.144;2024-01-30T00:23:50;11.10;;;7.18;;
45618;SDS011;31343;47.520;19.144;2024-01-30T00:26:15;6.40;;;4.20;;
45618;SDS011;31343;47.520;19.144;2024-01-30T00:28:41;10.90;;;5.80;;
45618;SDS011;31343;47.520;19.144;2024-01-30T00:31:07;14.02;;;4.80;;
45618;SDS011;31343;47.520;19.144;2024-01-30T00:33:33;13.48;;;6.03;;
45618;SDS011;31343;47.520;19.144;2024-01-30T00:35:59;10.05;;;5.03;;
45618;SDS011;31343;47.520;19.144;2024-01-30T00:38:25;10.18;;;5.22;;
45618;SDS011;31343;47.520;19.144;2024-01-30T00:40:50;7.38;;;3.53;;
45618;SDS011;31343;47.520;19.144;2024-01-30T00:43:16;8.18;;;4.53;;
45618;SDS011;31343;47.520;19.144;2024-01-30T00:45:45;9.32;;;5.15;;
45618;SDS011;31343;47.520;19.144;2024-01-30T00:48:10;12.48;;;4.90;;
45618;SDS011;31343;47.520;19.144;2024-01-30T00:50:36;6.78;;;5.45;;
45618;SDS011;31343;47.520;19.144;2024-01-30T00:53:02;8.75;;;5.90;;
45618;SDS011;31343;47.520;19.144;2024-01-30T00:55:27;7.28;;;3.90;;
45618;SDS011;31343;47.520;19.144;2024-01-30T00:57:53;10.75;;;5.90;;
45618;SDS011;31343;47.520;19.144;2024-01-30T01:00:19;6.60;;;5.35;;
45618;SDS011;31343;47.520;19.144;2024-01-30T01:02:46;7.60;;;4.97;;
45618;SDS011;31343;47.520;19.144;2024-01-30T01:05:11;11.25;;;5.00;;
45618;SDS011;31343;47.520;19.144;2024-01-30T01:07:38;11.30;;;4.78;;
45618;SDS011;31343;47.520;19.144;2024-01-30T01:10:05;6.80;;;5.55;;
45618;SDS011;31343;47.520;19.144;2024-01-30T01:12:31;7.05;;;4.50;;
45618;SDS011;31343;47.520;19.144;2024-01-30T01:14:57;8.00;;;6.32;;
45618;SDS011;31343;47.520;19.144;2024-01-30T01:17:22;6.45;;;4.13;;
45618;SDS011;31343;47.520;19.144;2024-01-30T01:19:48;10.35;;;6.05;;
45618;SDS011;31343;47.520;19.144;2024-01-30T01:22:14;4.75;;;3.25;;
45618;SDS011;31343;47.520;19.144;2024-01-30T01:24:40;10.70;;;5.40;;
45618;SDS011;31343;47.520;19.144;2024-01-30T01:27:06;8.25;;;5.50;;
45618;SDS011;31343;47.520;19.144;2024-01-30T01:29:32;7.93;;;4.78;;
45618;SDS011;31343;47.520;19.144;2024-01-30T01:31:58;4.72;;;3.45;;
45618;SDS011;31343;47.520;19.144;2024-01-30T01:34:24;11.50;;;6.85;;
45618;SDS011;31343;47.520;19.144;2024-01-30T01:36:50;8.65;;;4.60;;
45618;SDS011;31343;47.520;19.144;2024-01-30T01:39:16;9.23;;;4.90;;
45618;SDS011;31343;47.520;19.144;2024-01-30T01:41:42;4.10;;;3.67;;
45618;SDS011;31343;47.520;19.144;2024-01-30T01:44:08;7.22;;;5.15;;
45618;SDS011;31343;47.520;19.144;2024-01-30T01:46:34;12.77;;;5.60;;
45618;SDS011;31343;47.520;19.144;2024-01-30T01:49:01;7.82;;;5.03;;
45618;SDS011;31343;47.520;19.144;2024-01-30T01:51:27;7.53;;;4.55;;
45618;SDS011;31343;47.520;19.144;2024-01-30T01:53:56;10.93;;;5.15;;
45618;SDS011;31343;47.520;19.144;2024-01-30T01:56:23;3.42;;;2.38;;
45618;SDS011;31343;47.520;19.144;2024-01-30T01:58:51;6.35;;;4.00;;
45618;SDS011;31343;47.520;19.144;2024-01-30T02:01:19;5.72;;;4.43;;
45618;SDS011;31343;47.520;19.144;2024-01-30T02:03:46;5.93;;;3.90;;
45618;SDS011;31343;47.520;19.144;2024-01-30T02:06:15;13.88;;;5.13;;
45618;SDS011;31343;47.520;19.144;2024-01-30T02:08:41;5.82;;;3.97;;
45618;SDS011;31343;47.520;19.144;2024-01-30T02:11:07;4.85;;;4.43;;
45618;SDS011;31343;47.520;19.144;2024-01-30T02:13:35;8.15;;;5.07;;
45618;SDS011;31343;47.520;19.144;2024-01-30T02:16:01;5.88;;;4.25;;
45618;SDS011;31343;47.520;19.144;2024-01-30T02:18:27;9.02;;;4.45;;
45618;SDS011;31343;47.520;19.144;2024-01-30T02:20:53;9.27;;;4.93;;
45618;SDS011;31343;47.520;19.144;2024-01-30T02:23:21;11.77;;;6.15;;
45618;SDS011;31343;47.520;19.144;2024-01-30T02:25:52;8.38;;;6.18;;
45618;SDS011;31343;47.520;19.144;2024-01-30T02:28:18;4.85;;;3.20;;
45618;SDS011;31343;47.520;19.144;2024-01-30T02:30:45;10.50;;;5.80;;
45618;SDS011;31343;47.520;19.144;2024-01-30T02:33:11;6.40;;;3.83;;
45618;SDS011;31343;47.520;19.144;2024-01-30T02:35:37;6.47;;;4.05;;
45618;SDS011;31343;47.520;19.144;2024-01-30T02:38:03;5.50;;;3.85;;
45618;SDS011;31343;47.520;19.144;2024-01-30T02:40:29;5.20;;;3.58;;
45618;SDS011;31343;47.520;19.144;2024-01-30T02:42:55;6.70;;;4.80;;
45618;SDS011;31343;47.520;19.144;2024-01-30T02:45:21;9.18;;;4.18;;
45618;SDS011;31343;47.520;19.144;2024-01-30T02:47:48;6.07;;;4.03;;
45618;SDS011;31343;47.520;19.144;2024-01-30T02:50:14;4.25;;;3.90;;
45618;SDS011;31343;47.520;19.144;2024-01-30T02:52:40;6.18;;;5.05;;
45618;SDS011;31343;47.520;19.144;2024-01-30T02:55:06;4.63;;;4.25;;
45618;SDS011;31343;47.520;19.144;2024-01-30T02:57:31;7.60;;;4.75;;
45618;SDS011;31343;47.520;19.144;2024-01-30T02:59:57;7.95;;;5.25;;
45618;SDS011;31343;47.520;19.144;2024-01-30T03:02:23;8.32;;;5.15;;
45618;SDS011;31343;47.520;19.144;2024-01-30T03:04:49;4.88;;;3.47;;
45618;SDS011;31343;47.520;19.144;2024-01-30T03:07:14;5.88;;;3.70;;
45618;SDS011;31343;47.520;19.144;2024-01-30T03:09:41;7.18;;;5.28;;
45618;SDS011;31343;47.520;19.144;2024-01-30T03:12:08;4.45;;;3.70;;
45618;SDS011;31343;47.520;19.144;2024-01-30T03:14:34;7.85;;;3.97;;
45618;SDS011;31343;47.520;19.144;2024-01-30T03:17:00;3.35;;;2.92;;
45618;SDS011;31343;47.520;19.144;2024-01-30T03:19:25;4.18;;;3.67;;
45618;SDS011;31343;47.520;19.144;2024-01-30T03:21:51;7.15;;;5.50;;
45618;SDS011;31343;47.520;19.144;2024-01-30T03:24:17;7.18;;;5.32;;
45618;SDS011;31343;47.520;19.144;2024-01-30T03:26:43;4.38;;;3.85;;
45618;SDS011;31343;47.520;19.144;2024-01-30T03:29:09;6.32;;;4.82;;
45618;SDS011;31343;47.520;19.144;2024-01-30T03:31:35;7.43;;;3.80;;
45618;SDS011;31343;47.520;19.144;2024-01-30T03:34:01;4.82;;;3.45;;
45618;SDS011;31343;47.520;19.144;2024-01-30T03:36:27;9.88;;;4.93;;
45618;SDS011;31343;47.520;19.144;2024-01-30T03:38:53;7.15;;;4.57;;
45618;SDS011;31343;47.520;19.144;2024-01-30T03:41:19;5.10;;;4.53;;
45618;SDS011;31343;47.520;19.144;2024-01-30T03:43:44;4.53;;;3.67;;
45618;SDS011;31343;47.520;19.144;2024-01-30T03:46:11;6.50;;;4.68;;
45618;SDS011;31343;47.520;19.144;2024-01-30T03:48:37;3.90;;;3.53;;
45618;SDS011;31343;47.520;19.144;2024-01-30T03:51:04;7.20;;;4.20;;
45618;SDS011;31343;47.520;19.144;2024-01-30T03:53:30;5.57;;;4.53;;
45618;SDS011;31343;47.520;19.144;2024-01-30T03:55:56;9.57;;;5.28;;
45618;SDS011;31343;47.520;19.144;2024-01-30T03:58:22;12.02;;;5.97;;
45618;SDS011;31343;47.520;19.144;2024-01-30T04:00:48;8.52;;;4.43;;
45618;SDS011;31343;47.520;19.144;2024-01-30T04:03:16;8.50;;;5.07;;
45618;SDS011;31343;47.520;19.144;2024-01-30T04:05:42;10.27;;;4.55;;
45618;SDS011;31343;47.520;19.144;2024-01-30T04:08:08;6.32;;;4.32;;
45618;SDS011;31343;47.520;19.144;2024-01-30T04:10:34;6.70;;;4.22;;
45618;SDS011;31343;47.520;19.144;2024-01-30T04:13:00;5.95;;;4.32;;
45618;SDS011;31343;47.520;19.144;2024-01-30T04:15:26;4.88;;;4.07;;
45618;SDS011;31343;47.520;19.144;2024-01-30T04:17:53;5.47;;;5.00;;
45618;SDS011;31343;47.520;19.144;2024-01-30T04:20:18;5.80;;;4.05;;
45618;SDS011;31343;47.520;19.144;2024-01-30T04:22:44;4.63;;;3.10;;
45618;SDS011;31343;47.520;19.144;2024-01-30T04:25:13;9.02;;;3.95;;
45618;SDS011;31343;47.520;19.144;2024-01-30T04:27:40;6.75;;;4.20;;
45618;SDS011;31343;47.520;19.144;2024-01-30T04:30:06;5.40;;;4.35;;
45618;SDS011;31343;47.520;19.144;2024-01-30T04:32:32;5.45;;;3.40;;
45618;SDS011;31343;47.520;19.144;2024-01-30T04:34:58;5.38;;;4.30;;
45618;SDS011;31343;47.520;19.144;2024-01-30T04:37:24;6.68;;;4.10;;
45618;SDS011;31343;47.520;19.144;2024-01-30T04:39:50;6.43;;;3.08;;
45618;SDS011;31343;47.520;19.144;2024-01-30T04:42:16;7.07;;;2.67;;
45618;SDS011;31343;47.520;19.144;2024-01-30T04:44:42;5.80;;;4.25;;
45618;SDS011;31343;47.520;19.144;2024-01-30T04:47:08;3.83;;;3.53;;
45618;SDS011;31343;47.520;19.144;2024-01-30T04:49:36;6.03;;;3.35;;
45618;SDS011;31343;47.520;19.144;2024-01-30T04:52:01;6.15;;;4.80;;
45618;SDS011;31343;47.520;19.144;2024-01-30T04:54:27;7.43;;;3.58;;
45618;SDS011;31343;47.520;19.144;2024-01-30T04:56:53;7.03;;;4.13;;
45618;SDS011;31343;47.520;19.144;2024-01-30T04:59:19;6.80;;;4.45;;
45618;SDS011;31343;47.520;19.144;2024-01-30T05:01:44;3.95;;;3.00;;
45618;SDS011;31343;47.520;19.144;2024-01-30T05:04:10;7.40;;;4.30;;
45618;SDS011;31343;47.520;19.144;2024-01-30T05:06:36;5.35;;;3.33;;
45618;SDS011;31343;47.520;19.144;2024-01-30T05:09:02;5.88;;;3.88;;
45618;SDS011;31343;47.520;19.144;2024-01-30T05:11:31;7.22;;;2.65;;
45618;SDS011;31343;47.520;19.144;2024-01-30T05:14:01;4.45;;;3.20;;
45618;SDS011;31343;47.520;19.144;2024-01-30T05:16:27;7.85;;;3.88;;
45618;SDS011;31343;47.520;19.144;2024-01-30T05:18:52;4.38;;;3.20;;
45618;SDS011;31343;47.520;19.144;2024-01-30T05:21:18;7.03;;;4.13;;
45618;SDS011;31343;47.520;19.144;2024-01-30T05:23:44;5.32;;;3.10;;
45618;SDS011;31343;47.520;19.144;2024-01-30T05:26:10;7.60;;;4.80;;
45618;SDS011;31343;47.520;19.144;2024-01-30T05:28:35;3.78;;;2.70;;
45618;SDS011;31343;47.520;19.144;2024-01-30T05:31:01;7.55;;;3.67;;
45618;SDS011;31343;47.520;19.144;2024-01-30T05:33:27;6.22;;;4.57;;
45618;SDS011;31343;47.520;19.144;2024-01-30T05:35:53;4.43;;;2.90;;
45618;SDS011;31343;47.520;19.144;2024-01-30T05:38:19;14.38;;;4.03;;
45618;SDS011;31343;47.520;19.144;2024-01-30T05:40:45;5.20;;;3.53;;
45618;SDS011;31343;47.520;19.144;2024-01-30T05:43:11;3.45;;;3.15;;
45618;SDS011;31343;47.520;19.144;2024-01-30T05:45:37;4.85;;;3.42;;
45618;SDS011;31343;47.520;19.144;2024-01-30T05:48:03;6.93;;;4.75;;
45618;SDS011;31343;47.520;19.144;2024-01-30T05:50:29;4.63;;;3.03;;
45618;SDS011;31343;47.520;19.144;2024-01-30T05:52:55;3.60;;;3.03;;
45618;SDS011;31343;47.520;19.144;2024-01-30T05:55:21;5.07;;;3.38;;
45618;SDS011;31343;47.520;19.144;2024-01-30T05:57:46;6.18;;;3.55;;
45618;SDS011;31343;47.520;19.144;2024-01-30T06:00:12;7.85;;;4.80;;
45618;SDS011;31343;47.520;19.144;2024-01-30T06:02:38;8.52;;;3.63;;
45618;SDS011;31343;47.520;19.144;2024-01-30T06:05:04;3.13;;;2.90;;
45618;SDS011;31343;47.520;19.144;2024-01-30T06:07:30;3.70;;;2.53;;
45618;SDS011;31343;47.520;19.144;2024-01-30T06:09:56;6.57;;;4.35;;
45618;SDS011;31343;47.520;19.144;2024-01-30T06:12:22;5.10;;;4.05;;
45618;SDS011;31343;47.520;19.144;2024-01-30T06:14:48;7.25;;;3.17;;
45618;SDS011;31343;47.520;19.144;2024-01-30T06:17:13;5.93;;;3.60;;
45618;SDS011;31343;47.520;19.144;2024-01-30T06:19:39;4.93;;;3.95;;
45618;SDS011;31343;47.520;19.144;2024-01-30T06:22:05;3.58;;;3.10;;
45618;SDS011;31343;47.520;19.144;2024-01-30T06:24:30;4.72;;;3.50;;
45618;SDS011;31343;47.520;19.144;2024-01-30T06:26:56;10.93;;;1.67;;
45618;SDS011;31343;47.520;19.144;2024-01-30T06:29:22;4.03;;;2.85;;
45618;SDS011;31343;47.520;19.144;2024-01-30T06:31:50;3.42;;;2.97;;
45618;SDS011;31343;47.520;19.144;2024-01-30T06:34:15;5.20;;;2.97;;
45618;SDS011;31343;47.520;19.144;2024-01-30T06:36:41;4.75;;;3.45;;
45618;SDS011;31343;47.520;19.144;2024-01-30T06:39:07;8.38;;;3.55;;
45618;SDS011;31343;47.520;19.144;2024-01-30T06:41:33;4.40;;;2.95;;
45618;SDS011;31343;47.520;19.144;2024-01-30T06:44:01;8.05;;;3.67;;
45618;SDS011;31343;47.520;19.144;2024-01-30T06:46:30;5.57;;;3.85;;
45618;SDS011;31343;47.520;19.144;2024-01-30T06:48:57;5.22;;;3.30;;
45618;SDS011;31343;47.520;19.144;2024-01-30T06:51:23;8.20;;;4.07;;
45618;SDS011;31343;47.520;19.144;2024-01-30T06:53:49;17.17;;;5.63;;
45618;SDS011;31343;47.520;19.144;2024-01-30T06:56:14;10.35;;;5.65;;
45618;SDS011;31343;47.520;19.144;2024-01-30T06:58:41;11.52;;;5.53;;
45618;SDS011;31343;47.520;19.144;2024-01-30T07:01:07;6.45;;;5.50;;
45618;SDS011;31343;47.520;19.144;2024-01-30T07:03:33;14.90;;;5.80;;
45618;SDS011;31343;47.520;19.144;2024-01-30T07:05:58;9.82;;;6.57;;
45618;SDS011;31343;47.520;19.144;2024-01-30T07:08:24;11.77;;;7.78;;
45618;SDS011;31343;47.520;19.144;2024-01-30T07:10:50;17.40;;;7.95;;
45618;SDS011;31343;47.520;19.144;2024-01-30T07:13:20;11.13;;;7.60;;
45618;SDS011;31343;47.520;19.144;2024-01-30T07:15:45;10.90;;;6.57;;
45618;SDS011;31343;47.520;19.144;2024-01-30T07:18:11;8.30;;;6.47;;
45618;SDS011;31343;47.520;19.144;2024-01-30T07:20:38;17.25;;;8.07;;
45618;SDS011;31343;47.520;19.144;2024-01-30T07:23:11;10.63;;;7.78;;
45618;SDS011;31343;47.520;19.144;2024-01-30T07:25:41;9.35;;;6.75;;
45618;SDS011;31343;47.520;19.144;2024-01-30T07:28:08;21.23;;;8.65;;
45618;SDS011;31343;47.520;19.144;2024-01-30T07:30:38;12.32;;;8.57;;
45618;SDS011;31343;47.520;19.144;2024-01-30T07:33:04;9.25;;;6.75;;
45618;SDS011;31343;47.520;19.144;2024-01-30T07:35:30;9.70;;;7.25;;
45618;SDS011;31343;47.520;19.144;2024-01-30T07:37:56;13.65;;;7.25;;
45618;SDS011;31343;47.520;19.144;2024-01-30T07:40:22;15.00;;;8.07;;
45618;SDS011;31343;47.520;19.144;2024-01-30T07:42:49;9.85;;;5.65;;
45618;SDS011;31343;47.520;19.144;2024-01-30T07:45:14;12.25;;;6.63;;
45618;SDS011;31343;47.520;19.144;2024-01-30T07:47:40;10.20;;;6.45;;
45618;SDS011;31343;47.520;19.144;2024-01-30T07:50:07;10.52;;;6.70;;
45618;SDS011;31343;47.520;19.144;2024-01-30T07:52:33;11.93;;;7.18;;
45618;SDS011;31343;47.520;19.144;2024-01-30T07:54:59;10.00;;;6.75;;
45618;SDS011;31343;47.520;19.144;2024-01-30T07:57:25;6.53;;;5.53;;
45618;SDS011;31343;47.520;19.144;2024-01-30T07:59:50;8.05;;;6.90;;
45618;SDS011;31343;47.520;19.144;2024-01-30T08:02:16;11.00;;;6.38;;
45618;SDS011;31343;47.520;19.144;2024-01-30T08:04:42;10.50;;;6.93;;
45618;SDS011;31343;47.520;19.144;2024-01-30T08:07:07;8.30;;;6.28;;
45618;SDS011;31343;47.520;19.144;2024-01-30T08:09:33;11.82;;;7.72;;
45618;SDS011;31343;47.520;19.144;2024-01-30T08:12:17;14.77;;;7.47;;
45618;SDS011;31343;47.520;19.144;2024-01-30T08:14:43;9.18;;;6.82;;
45618;SDS011;31343;47.520;19.144;2024-01-30T08:17:09;16.63;;;7.65;;
45618;SDS011;31343;47.520;19.144;2024-01-30T08:19:34;12.52;;;7.90;;
45618;SDS011;31343;47.520;19.144;2024-01-30T08:22:00;9.38;;;7.43;;
45618;SDS011;31343;47.520;19.144;2024-01-30T08:24:25;10.88;;;6.57;;
45618;SDS011;31343;47.520;19.144;2024-01-30T08:26:51;12.57;;;5.97;;
45618;SDS011;31343;47.520;19.144;2024-01-30T08:29:17;9.65;;;7.85;;
45618;SDS011;31343;47.520;19.144;2024-01-30T08:31:42;12.50;;;7.30;;
45618;SDS011;31343;47.520;19.144;2024-01-30T08:34:09;9.20;;;5.50;;
45618;SDS011;31343;47.520;19.144;2024-01-30T08:36:35;9.40;;;6.35;;
45618;SDS011;31343;47.520;19.144;2024-01-30T08:39:01;11.45;;;5.88;;
45618;SDS011;31343;47.520;19.144;2024-01-30T08:41:28;10.93;;;6.38;;
45618;SDS011;31343;47.520;19.144;2024-01-30T08:43:53;10.65;;;7.88;;
45618;SDS011;31343;47.520;19.144;2024-01-30T08:46:19;15.18;;;6.55;;
45618;SDS011;31343;47.520;19.144;2024-01-30T08:48:45;7.65;;;5.85;;
45618;SDS011;31343;47.520;19.144;2024-01-30T08:51:12;8.18;;;5.47;;
45618;SDS011;31343;47.520;19.144;2024-01-30T08:53:38;5.95;;;5.35;;
45618;SDS011;31343;47.520;19.144;2024-01-30T08:56:05;11.70;;;6.68;;
45618;SDS011;31343;47.520;19.144;2024-01-30T08:58:31;15.32;;;6.55;;
45618;SDS011;31343;47.520;19.144;2024-01-30T09:00:58;11.77;;;6.20;;
45618;SDS011;31343;47.520;19.144;2024-01-30T09:03:24;7.20;;;5.30;;
45618;SDS011;31343;47.520;19.144;2024-01-30T09:05:49;9.10;;;6.90;;
45618;SDS011;31343;47.520;19.144;2024-01-30T09:08:15;13.38;;;6.10;;
45618;SDS011;31343;47.520;19.144;2024-01-30T09:10:41;6.78;;;5.45;;
45618;SDS011;31343;47.520;19.144;2024-01-30T09:13:06;8.43;;;5.00;;
45618;SDS011;31343;47.520;19.144;2024-01-30T09:15:32;11.73;;;5.63;;
45618;SDS011;31343;47.520;19.144;2024-01-30T09:17:59;8.13;;;6.05;;
45618;SDS011;31343;47.520;19.144;2024-01-30T09:20:24;10.00;;;5.03;;
45618;SDS011;31343;47.520;19.144;2024-01-30T09:22:50;9.93;;;6.63;;
45618;SDS011;31343;47.520;19.144;2024-01-30T09:25:16;7.63;;;5.82;;
45618;SDS011;31343;47.520;19.144;2024-01-30T09:27:43;11.98;;;6.03;;
45618;SDS011;31343;47.520;19.144;2024-01-30T09:30:09;8.48;;;6.07;;
45618;SDS011;31343;47.520;19.144;2024-01-30T09:32:35;9.20;;;5.38;;
45618;SDS011;31343;47.520;19.144;2024-01-30T09:35:01;11.32;;;5.18;;
45618;SDS011;31343;47.520;19.144;2024-01-30T09:37:26;10.15;;;5.18;;
45618;SDS011;31343;47.520;19.144;2024-01-30T09:39:52;10.10;;;6.20;;
45618;SDS011;31343;47.520;19.144;2024-01-30T09:42:26;10.63;;;4.90;;
45618;SDS011;31343;47.520;19.144;2024-01-30T09:45:02;8.52;;;4.30;;
45618;SDS011;31343;47.520;19.144;2024-01-30T09:47:32;6.68;;;5.28;;
45618;SDS011;31343;47.520;19.144;2024-01-30T09:50:09;7.32;;;5.80;;
45618;SDS011;31343;47.520;19.144;2024-01-30T09:52:37;7.15;;;4.47;;
45618;SDS011;31343;47.520;19.144;2024-01-30T09:55:05;9.30;;;4.60;;
45618;SDS011;31343;47.520;19.144;2024-01-30T09:57:31;7.95;;;5.45;;
45618;SDS011;31343;47.520;19.144;2024-01-30T09:59:57;8.15;;;5.15;;
45618;SDS011;31343;47.520;19.144;2024-01-30T10:02:23;8.23;;;4.90;;
45618;SDS011;31343;47.520;19.144;2024-01-30T10:04:49;8.27;;;5.20;;
45618;SDS011;31343;47.520;19.144;2024-01-30T10:07:17;8.23;;;4.72;;
45618;SDS011;31343;47.520;19.144;2024-01-30T10:09:43;6.43;;;4.20;;
45618;SDS011;31343;47.520;19.144;2024-01-30T10:12:09;8.35;;;5.30;;
45618;SDS011;31343;47.520;19.144;2024-01-30T10:14:39;11.63;;;5.28;;
45618;SDS011;31343;47.520;19.144;2024-01-30T10:17:05;5.53;;;3.22;;
45618;SDS011;31343;47.520;19.144;2024-01-30T10:19:32;8.93;;;5.90;;
45618;SDS011;31343;47.520;19.144;2024-01-30T10:21:59;12.13;;;7.05;;
45618;SDS011;31343;47.520;19.144;2024-01-30T10:24:28;9.05;;;6.10;;
45618;SDS011;31343;47.520;19.144;2024-01-30T10:26:56;8.77;;;5.47;;
45618;SDS011;31343;47.520;19.144;2024-01-30T10:29:24;7.55;;;4.70;;
45618;SDS011;31343;47.520;19.144;2024-01-30T10:31:59;9.20;;;4.30;;
45618;SDS011;31343;47.520;19.144;2024-01-30T10:34:26;12.07;;;6.03;;
45618;SDS011;31343;47.520;19.144;2024-01-30T10:36:55;10.55;;;6.03;;
45618;SDS011;31343;47.520;19.144;2024-01-30T10:39:37;6.47;;;4.38;;
45618;SDS011;31343;47.520;19.144;2024-01-30T10:42:04;9.27;;;5.68;;
45618;SDS011;31343;47.520;19.144;2024-01-30T10:44:39;10.50;;;5.18;;
45618;SDS011;31343;47.520;19.144;2024-01-30T10:47:15;8.02;;;5.10;;
45618;SDS011;31343;47.520;19.144;2024-01-30T10:49:46;6.68;;;3.97;;
45618;SDS011;31343;47.520;19.144;2024-01-30T10:52:12;9.27;;;4.38;;
45618;SDS011;31343;47.520;19.144;2024-01-30T10:54:40;6.55;;;4.07;;
45618;SDS011;31343;47.520;19.144;2024-01-30T10:57:09;9.13;;;5.05;;
45618;SDS011;31343;47.520;19.144;2024-01-30T10:59:37;6.65;;;4.07;;
45618;SDS011;31343;47.520;19.144;2024-01-30T11:02:04;7.50;;;3.25;;
45618;SDS011;31343;47.520;19.144;2024-01-30T11:04:37;5.70;;;4.47;;
45618;SDS011;31343;47.520;19.144;2024-01-30T11:07:16;4.35;;;3.50;;
45618;SDS011;31343;47.520;19.144;2024-01-30T11:12:26;8.75;;;3.80;;
45618;SDS011;31343;47.520;19.144;2024-01-30T11:15:08;3.63;;;2.65;;
45618;SDS011;31343;47.520;19.144;2024-01-30T11:20:15;6.20;;;2.60;;
45618;SDS011;31343;47.520;19.144;2024-01-30T11:22:45;3.83;;;3.00;;
45618;SDS011;31343;47.520;19.144;2024-01-30T11:25:15;7.00;;;3.33;;
45618;SDS011;31343;47.520;19.144;2024-01-30T11:27:42;6.63;;;3.25;;
45618;SDS011;31343;47.520;19.144;2024-01-30T11:30:09;5.38;;;3.17;;
45618;SDS011;31343;47.520;19.144;2024-01-30T11:32:35;4.68;;;3.05;;
45618;SDS011;31343;47.520;19.144;2024-01-30T11:35:03;5.88;;;3.30;;
45618;SDS011;31343;47.520;19.144;2024-01-30T11:37:34;4.47;;;2.42;;
45618;SDS011;31343;47.520;19.144;2024-01-30T11:40:03;4.93;;;2.67;;
45618;SDS011;31343;47.520;19.144;2024-01-30T11:42:29;5.43;;;3.05;;
45618;SDS011;31343;47.520;19.144;2024-01-30T11:44:56;7.60;;;3.30;;
45618;SDS011;31343;47.520;19.144;2024-01-30T11:47:26;8.45;;;4.18;;
45618;SDS011;31343;47.520;19.144;2024-01-30T11:49:52;4.78;;;2.50;;
45618;SDS011;31343;47.520;19.144;2024-01-30T11:52:17;4.18;;;2.83;;
45618;SDS011;31343;47.520;19.144;2024-01-30T11:54:43;5.47;;;2.58;;
45618;SDS011;31343;47.520;19.144;2024-01-30T11:57:09;5.15;;;2.95;;
45618;SDS011;31343;47.520;19.144;2024-01-30T11:59:34;5.15;;;2.65;;
45618;SDS011;31343;47.520;19.144;2024-01-30T12:02:00;6.00;;;2.78;;
45618;SDS011;31343;47.520;19.144;2024-01-30T12:04:29;6.05;;;3.20;;
45618;SDS011;31343;47.520;19.144;2024-01-30T12:06:55;7.22;;;2.92;;
45618;SDS011;31343;47.520;19.144;2024-01-30T12:09:21;3.70;;;2.90;;
45618;SDS011;31343;47.520;19.144;2024-01-30T12:11:48;10.13;;;2.83;;
45618;SDS011;31343;47.520;19.144;2024-01-30T12:14:17;6.85;;;3.25;;
45618;SDS011;31343;47.520;19.144;2024-01-30T12:16:47;4.22;;;2.95;;
45618;SDS011;31343;47.520;19.144;2024-01-30T12:19:21;4.93;;;1.83;;
45618;SDS011;31343;47.520;19.144;2024-01-30T12:21:53;4.50;;;3.28;;
45618;SDS011;31343;47.520;19.144;2024-01-30T12:24:24;3.38;;;2.15;;
45618;SDS011;31343;47.520;19.144;2024-01-30T12:26:56;6.40;;;2.60;;
45618;SDS011;31343;47.520;19.144;2024-01-30T12:29:23;4.70;;;2.35;;
45618;SDS011;31343;47.520;19.144;2024-01-30T12:31:48;5.95;;;2.83;;
45618;SDS011;31343;47.520;19.144;2024-01-30T12:34:18;4.22;;;2.58;;
45618;SDS011;31343;47.520;19.144;2024-01-30T12:36:46;4.18;;;3.20;;
45618;SDS011;31343;47.520;19.144;2024-01-30T12:39:13;2.58;;;2.10;;
45618;SDS011;31343;47.520;19.144;2024-01-30T12:41:40;3.83;;;2.58;;
45618;SDS011;31343;47.520;19.144;2024-01-30T12:44:05;3.25;;;1.60;;
45618;SDS011;31343;47.520;19.144;2024-01-30T12:46:32;4.72;;;2.25;;
45618;SDS011;31343;47.520;19.144;2024-01-30T12:49:00;5.65;;;3.75;;
45618;SDS011;31343;47.520;19.144;2024-01-30T12:51:25;3.65;;;2.00;;
45618;SDS011;31343;47.520;19.144;2024-01-30T12:53:51;4.38;;;2.35;;
45618;SDS011;31343;47.520;19.144;2024-01-30T12:56:17;4.65;;;2.90;;
45618;SDS011;31343;47.520;19.144;2024-01-30T12:58:42;4.63;;;3.08;;
45618;SDS011;31343;47.520;19.144;2024-01-30T13:01:08;2.90;;;2.60;;
45618;SDS011;31343;47.520;19.144;2024-01-30T13:03:35;4.35;;;2.38;;
45618;SDS011;31343;47.520;19.144;2024-01-30T13:06:01;4.70;;;2.25;;
45618;SDS011;31343;47.520;19.144;2024-01-30T13:08:27;4.13;;;2.38;;
45618;SDS011;31343;47.520;19.144;2024-01-30T13:10:53;3.53;;;2.30;;
45618;SDS011;31343;47.520;19.144;2024-01-30T13:13:18;3.63;;;2.15;;
45618;SDS011;31343;47.520;19.144;2024-01-30T13:15:44;9.88;;;3.35;;
45618;SDS011;31343;47.520;19.144;2024-01-30T13:18:09;3.05;;;1.55;;
45618;SDS011;31343;47.520;19.144;2024-01-30T13:20:35;3.25;;;2.20;;
45618;SDS011;31343;47.520;19.144;2024-01-30T13:23:01;2.67;;;1.80;;
45618;SDS011;31343;47.520;19.144;2024-01-30T13:25:26;4.22;;;2.42;;
45618;SDS011;31343;47.520;19.144;2024-01-30T13:27:52;3.05;;;2.38;;
45618;SDS011;31343;47.520;19.144;2024-01-30T13:30:18;2.40;;;1.88;;
45618;SDS011;31343;47.520;19.144;2024-01-30T13:32:44;2.58;;;1.83;;
45618;SDS011;31343;47.520;19.144;2024-01-30T13:35:11;2.28;;;1.33;;
45618;SDS011;31343;47.520;19.144;2024-01-30T13:37:36;3.60;;;1.67;;
45618;SDS011;31343;47.520;19.144;2024-01-30T13:40:04;2.33;;;1.42;;
45618;SDS011;31343;47.520;19.144;2024-01-30T13:42:32;2.22;;;1.80;;
45618;SDS011;31343;47.520;19.144;2024-01-30T13:44:57;2.83;;;1.98;;
45618;SDS011;31343;47.520;19.144;2024-01-30T13:47:23;3.95;;;1.65;;
45618;SDS011;31343;47.520;19.144;2024-01-30T13:49:50;2.15;;;1.65;;
45618;SDS011;31343;47.520;19.144;2024-01-30T13:52:17;3.65;;;2.15;;
45618;SDS011;31343;47.520;19.144;2024-01-30T13:54:43;3.63;;;2.22;;
45618;SDS011;31343;47.520;19.144;2024-01-30T13:57:09;2.20;;;1.77;;
45618;SDS011;31343;47.520;19.144;2024-01-30T13:59:35;4.55;;;1.92;;
45618;SDS011;31343;47.520;19.144;2024-01-30T14:02:00;3.08;;;1.60;;
45618;SDS011;31343;47.520;19.144;2024-01-30T14:04:26;3.05;;;1.70;;
45618;SDS011;31343;47.520;19.144;2024-01-30T14:06:52;3.33;;;1.67;;
45618;SDS011;31343;47.520;19.144;2024-01-30T14:09:17;3.15;;;1.50;;
45618;SDS011;31343;47.520;19.144;2024-01-30T14:11:43;3.40;;;1.73;;
45618;SDS011;31343;47.520;19.144;2024-01-30T14:14:09;4.28;;;2.47;;
45618;SDS011;31343;47.520;19.144;2024-01-30T14:16:34;2.35;;;1.90;;
45618;SDS011;31343;47.520;19.144;2024-01-30T14:19:00;3.40;;;1.88;;
45618;SDS011;31343;47.520;19.144;2024-01-30T14:21:26;2.30;;;1.45;;
45618;SDS011;31343;47.520;19.144;2024-01-30T14:23:51;3.60;;;1.73;;
45618;SDS011;31343;47.520;19.144;2024-01-30T14:26:17;4.72;;;2.10;;
45618;SDS011;31343;47.520;19.144;2024-01-30T14:28:43;2.97;;;2.30;;
45618;SDS011;31343;47.520;19.144;2024-01-30T14:31:10;2.17;;;1.90;;
45618;SDS011;31343;47.520;19.144;2024-01-30T14:33:36;2.05;;;1.73;;